createdAt,value
2023-05-05T00:01:27.098Z,11.52
2023-05-05T00:03:53.912Z,12.35
2023-05-05T00:06:20.741Z,11.43
2023-05-05T00:08:47.677Z,12.40
2023-05-05T00:11:14.524Z,11.75
2023-05-05T00:13:41.396Z,9.82
2023-05-05T00:16:08.268Z,10.75
2023-05-05T00:18:35.259Z,10.27
2023-05-05T00:21:02.413Z,10.93
2023-05-05T00:23:29.171Z,10.38
2023-05-05T00:25:56.043Z,11.10
2023-05-05T00:28:22.968Z,10.00
2023-05-05T00:30:49.807Z,9.90
2023-05-05T00:33:16.861Z,11.13
2023-05-05T00:35:43.689Z,10.55
2023-05-05T00:38:10.424Z,11.63
2023-05-05T00:40:38.283Z,10.75
2023-05-05T00:43:05.344Z,9.23
2023-05-05T00:45:32.197Z,9.20
2023-05-05T00:48:00.520Z,9.50
2023-05-05T00:50:29.564Z,9.85
2023-05-05T00:53:03.306Z,8.90
2023-05-05T00:55:31.003Z,8.05
2023-05-05T00:58:02.722Z,7.00
2023-05-05T01:00:30.171Z,7.28
2023-05-05T01:02:57.268Z,7.68
2023-05-05T01:05:25.902Z,6.15
2023-05-05T01:08:19.534Z,6.50
2023-05-05T01:10:53.183Z,6.18
2023-05-05T01:14:04.274Z,7.72
2023-05-05T01:16:34.143Z,7.53
2023-05-05T01:19:26.872Z,19.33
2023-05-05T01:21:57.249Z,11.75
2023-05-05T01:24:44.124Z,11.00
2023-05-05T01:27:35.069Z,8.38
2023-05-05T01:30:19.879Z,7.32
2023-05-05T01:32:57.961Z,7.90
2023-05-05T01:35:31.920Z,8.18
2023-05-05T01:38:37.968Z,9.30
2023-05-05T01:41:12.053Z,8.07
2023-05-05T01:43:41.318Z,7.97
2023-05-05T01:46:08.958Z,8.18
2023-05-05T01:48:37.138Z,7.55
2023-05-05T01:51:05.550Z,7.35
2023-05-05T01:53:34.324Z,7.75
2023-05-05T01:56:02.766Z,9.43
2023-05-05T01:58:31.069Z,11.65
2023-05-05T02:00:59.068Z,10.05
2023-05-05T02:03:27.696Z,7.75
2023-05-05T02:05:55.959Z,9.13
2023-05-05T02:08:26.155Z,8.75
2023-05-05T02:10:55.730Z,8.45
2023-05-05T02:13:24.641Z,7.47
2023-05-05T02:15:52.198Z,7.97
2023-05-05T02:18:20.113Z,8.38
2023-05-05T02:20:47.463Z,8.55
2023-05-05T02:23:14.211Z,8.45
2023-05-05T02:25:44.293Z,8.35
2023-05-05T02:28:19.153Z,7.85
2023-05-05T02:30:54.797Z,6.45
2023-05-05T02:33:23.732Z,6.40
2023-05-05T02:35:53.501Z,6.15
2023-05-05T02:38:26.404Z,6.18
2023-05-05T02:40:58.059Z,6.50
2023-05-05T02:43:26.028Z,7.60
2023-05-05T02:45:52.760Z,6.85
2023-05-05T02:48:19.405Z,5.82
2023-05-05T02:50:46.507Z,6.90
2023-05-05T02:53:14.494Z,6.18
2023-05-05T02:55:51.841Z,6.75
2023-05-05T02:58:27.367Z,6.57
2023-05-05T03:01:38.474Z,7.70
2023-05-05T03:04:17.606Z,7.13
2023-05-05T03:06:48.973Z,6.40
2023-05-05T03:09:30.213Z,6.85
2023-05-05T03:12:03.998Z,8.50
2023-05-05T03:14:37.167Z,14.00
2023-05-05T03:17:06.248Z,18.08
2023-05-05T03:19:35.262Z,26.58
2023-05-05T03:22:03.985Z,33.22
2023-05-05T03:24:30.821Z,29.73
2023-05-05T03:26:57.766Z,15.57
2023-05-05T03:29:25.477Z,12.70
2023-05-05T03:31:52.368Z,12.90
2023-05-05T03:34:26.902Z,8.02
2023-05-05T03:36:53.573Z,7.28
2023-05-05T03:39:20.358Z,11.60
2023-05-05T03:41:47.149Z,12.90
2023-05-05T03:44:13.834Z,8.35
2023-05-05T03:46:40.580Z,7.57
2023-05-05T03:49:08.234Z,10.20
2023-05-05T03:51:34.967Z,21.38
2023-05-05T03:54:01.684Z,23.40
2023-05-05T03:56:28.509Z,30.08
2023-05-05T03:58:55.192Z,22.42
2023-05-05T04:01:22.179Z,14.60
2023-05-05T04:03:49.108Z,15.77
2023-05-05T04:06:15.850Z,17.52
2023-05-05T04:08:42.501Z,17.95
2023-05-05T04:11:09.178Z,15.95
2023-05-05T04:13:35.929Z,14.07
2023-05-05T04:16:02.687Z,13.77
2023-05-05T04:18:29.463Z,14.05
2023-05-05T04:20:56.108Z,13.23
2023-05-05T04:23:22.836Z,18.02
2023-05-05T04:25:49.660Z,15.82
2023-05-05T04:28:16.477Z,18.05
2023-05-05T04:30:43.697Z,16.52
2023-05-05T04:33:10.480Z,18.98
2023-05-05T04:35:37.137Z,32.25
2023-05-05T04:38:03.867Z,29.50
2023-05-05T04:40:30.598Z,20.83
2023-05-05T04:42:57.314Z,20.60
2023-05-05T04:45:23.959Z,15.35
2023-05-05T04:47:50.937Z,17.33
2023-05-05T04:50:17.764Z,16.48
2023-05-05T04:52:44.483Z,17.00
2023-05-05T04:55:11.758Z,17.17
2023-05-05T04:57:38.504Z,27.33
2023-05-05T05:00:06.662Z,21.85
2023-05-05T05:02:33.729Z,19.52
2023-05-05T05:05:00.461Z,17.52
2023-05-05T05:07:27.146Z,15.65
2023-05-05T05:09:54.358Z,19.52
2023-05-05T05:12:21.190Z,18.15
2023-05-05T05:14:47.916Z,17.73
2023-05-05T05:17:14.675Z,19.30
2023-05-05T05:19:41.412Z,23.65
2023-05-05T05:22:08.113Z,21.92
2023-05-05T05:24:34.984Z,22.05
2023-05-05T05:27:01.749Z,23.15
2023-05-05T05:29:28.416Z,22.15
2023-05-05T05:31:55.232Z,22.00
2023-05-05T05:34:21.953Z,20.00
2023-05-05T05:36:48.636Z,21.92
2023-05-05T05:39:15.392Z,28.02
2023-05-05T05:41:42.145Z,26.38
2023-05-05T05:44:08.829Z,20.35
2023-05-05T05:46:35.736Z,21.13
2023-05-05T05:49:02.465Z,20.25
2023-05-05T05:51:29.240Z,20.55
2023-05-05T05:53:58.702Z,23.23
2023-05-05T05:56:25.649Z,43.60
2023-05-05T05:58:52.520Z,28.60
2023-05-05T06:01:19.555Z,17.80
2023-05-05T06:03:46.294Z,23.90
2023-05-05T06:06:13.155Z,19.92
2023-05-05T06:08:39.820Z,18.75
2023-05-05T06:11:08.756Z,19.02
2023-05-05T06:13:35.447Z,17.27
2023-05-05T06:16:02.289Z,15.77
2023-05-05T06:18:29.052Z,14.70
2023-05-05T06:20:55.706Z,14.70
2023-05-05T06:23:22.628Z,16.88
2023-05-05T06:25:49.957Z,16.85
2023-05-05T06:28:16.684Z,20.95
2023-05-05T06:30:43.437Z,19.17
2023-05-05T06:33:10.156Z,12.55
2023-05-05T06:35:37.073Z,10.77
2023-05-05T06:38:04.012Z,10.68
2023-05-05T06:40:33.397Z,8.63
2023-05-05T06:43:00.066Z,10.10
2023-05-05T06:45:27.873Z,7.20
2023-05-05T06:47:54.690Z,6.65
2023-05-05T06:50:21.496Z,8.77
2023-05-05T06:52:48.304Z,6.65
2023-05-05T06:55:15.076Z,7.10
2023-05-05T06:57:42.212Z,6.78
2023-05-05T07:00:11.570Z,14.15
2023-05-05T07:02:38.965Z,9.43
2023-05-05T07:05:06.097Z,9.35
2023-05-05T07:07:32.937Z,10.98
2023-05-05T07:09:59.707Z,21.58
2023-05-05T07:12:29.215Z,19.17
2023-05-05T07:14:56.367Z,8.35
2023-05-05T07:17:23.157Z,11.13
2023-05-05T07:19:51.342Z,13.32
2023-05-05T07:22:18.096Z,12.07
2023-05-05T07:24:44.805Z,14.88
2023-05-05T07:27:11.532Z,10.43
2023-05-05T07:29:38.212Z,8.13
2023-05-05T07:32:05.445Z,10.35
2023-05-05T07:34:34.543Z,10.55
2023-05-05T07:37:01.705Z,11.73
2023-05-05T07:39:28.438Z,14.70
2023-05-05T07:41:55.119Z,13.60
2023-05-05T07:44:21.817Z,13.32
2023-05-05T07:46:48.562Z,22.75
2023-05-05T07:49:15.651Z,21.88
2023-05-05T07:51:42.575Z,14.32
2023-05-05T07:54:09.439Z,35.33
2023-05-05T07:56:36.106Z,30.83
2023-05-05T07:59:02.788Z,15.60
2023-05-05T08:01:29.520Z,11.98
2023-05-05T08:03:56.185Z,9.90
2023-05-05T08:06:24.997Z,12.57
2023-05-05T08:08:53.384Z,12.77
2023-05-05T08:11:20.854Z,7.80
2023-05-05T08:13:47.706Z,13.48
2023-05-05T08:16:15.230Z,12.15
2023-05-05T08:18:41.988Z,10.65
2023-05-05T08:21:10.459Z,13.20
2023-05-05T08:23:38.237Z,9.82
2023-05-05T08:26:06.970Z,17.10
2023-05-05T08:28:36.511Z,9.13
2023-05-05T08:31:06.994Z,10.48
2023-05-05T08:33:33.804Z,13.23
2023-05-05T08:36:01.409Z,14.07
2023-05-05T08:38:28.182Z,6.30
2023-05-05T08:40:55.152Z,11.20
2023-05-05T08:43:23.926Z,8.75
2023-05-05T08:45:52.041Z,10.32
2023-05-05T08:48:22.621Z,10.02
2023-05-05T08:50:56.649Z,9.13
2023-05-05T08:53:39.134Z,10.70
2023-05-05T08:56:06.955Z,11.40
2023-05-05T08:58:37.096Z,7.50
2023-05-05T09:01:05.458Z,14.48
2023-05-05T09:03:32.611Z,8.00
2023-05-05T09:05:59.433Z,9.35
2023-05-05T09:08:27.049Z,8.25
2023-05-05T09:10:55.136Z,9.57
2023-05-05T09:13:21.981Z,7.60
2023-05-05T09:15:48.692Z,13.93
2023-05-05T09:18:15.417Z,10.35
2023-05-05T09:20:42.183Z,14.15
2023-05-05T09:23:16.908Z,18.05
2023-05-05T09:25:48.620Z,8.70
2023-05-05T09:28:17.001Z,10.30
2023-05-05T09:30:46.356Z,6.78
2023-05-05T09:33:14.047Z,11.52
2023-05-05T09:35:55.098Z,11.73
2023-05-05T09:38:24.000Z,9.32
2023-05-05T09:40:54.130Z,10.02
2023-05-05T09:43:23.291Z,12.80
2023-05-05T09:45:51.177Z,7.47
2023-05-05T09:48:31.565Z,14.30
2023-05-05T09:50:59.481Z,8.82
2023-05-05T09:53:26.795Z,5.70
2023-05-05T09:55:54.097Z,17.02
2023-05-05T09:58:24.963Z,5.82
2023-05-05T10:00:52.305Z,5.47
2023-05-05T10:03:19.642Z,5.43
2023-05-05T10:05:50.735Z,5.97
2023-05-05T10:08:19.935Z,5.13
2023-05-05T10:10:52.921Z,5.40
2023-05-05T10:13:21.977Z,6.28
2023-05-05T10:15:51.500Z,5.38
2023-05-05T10:18:23.784Z,8.02
2023-05-05T10:20:58.205Z,5.50
2023-05-05T10:23:34.363Z,5.80
2023-05-05T10:26:05.642Z,5.80
2023-05-05T10:28:50.551Z,5.10
2023-05-05T10:31:26.370Z,5.85
2023-05-05T10:34:06.074Z,4.93
2023-05-05T10:36:33.613Z,5.38
2023-05-05T10:39:00.615Z,4.00
2023-05-05T10:41:28.687Z,4.32
2023-05-05T10:43:57.438Z,3.72
2023-05-05T10:46:26.862Z,4.50
2023-05-05T10:49:31.592Z,3.90
2023-05-05T10:52:12.516Z,3.30
2023-05-05T10:54:47.353Z,3.83
2023-05-05T10:57:16.894Z,4.78
